createdAt,value
2022-10-23T00:00:42.848Z,6.70
2022-10-23T00:06:11.604Z,6.25
2022-10-23T00:11:41.516Z,4.40
2022-10-23T00:17:12.775Z,5.38
2022-10-23T00:22:41.164Z,4.65
2022-10-23T00:28:10.566Z,4.03
2022-10-23T00:33:41.313Z,4.30
2022-10-23T00:39:10.030Z,3.55
2022-10-23T00:45:16.580Z,3.28
2022-10-23T00:50:49.223Z,3.30
2022-10-23T00:56:18.413Z,3.63
2022-10-23T01:01:48.353Z,3.20
2022-10-23T01:07:26.106Z,3.63
2022-10-23T01:13:04.573Z,3.65
2022-10-23T01:18:41.281Z,3.80
2022-10-23T01:24:20.582Z,4.38
2022-10-23T01:30:01.158Z,4.63
2022-10-23T01:35:38.972Z,4.80
2022-10-23T01:41:12.520Z,4.57
2022-10-23T01:46:44.954Z,5.00
2022-10-23T01:52:15.670Z,5.10
2022-10-23T01:57:49.521Z,4.80
2022-10-23T02:03:19.679Z,4.95
2022-10-23T02:08:48.665Z,5.35
2022-10-23T02:14:21.688Z,5.03
2022-10-23T02:19:59.396Z,5.50
2022-10-23T02:25:34.018Z,5.45
2022-10-23T02:31:05.702Z,4.38
2022-10-23T02:36:36.661Z,4.88
2022-10-23T02:42:12.445Z,4.70
2022-10-23T02:47:55.181Z,4.70
2022-10-23T02:53:34.413Z,4.97
2022-10-23T02:59:10.509Z,5.10
2022-10-23T03:04:43.045Z,5.53
2022-10-23T03:10:14.412Z,4.88
2022-10-23T03:15:44.583Z,4.70
2022-10-23T03:21:16.257Z,5.47
2022-10-23T03:26:46.560Z,5.50
2022-10-23T03:32:15.337Z,5.32
2022-10-23T03:37:44.746Z,4.75
2022-10-23T03:43:15.966Z,4.78
2022-10-23T03:48:45.820Z,5.95
2022-10-23T03:54:14.286Z,6.07
2022-10-23T03:59:44.890Z,5.83
2022-10-23T04:05:09.548Z,7.25
2022-10-23T04:10:34.888Z,8.18
2022-10-23T04:16:01.211Z,7.03
2022-10-23T04:21:24.773Z,8.02
2022-10-23T04:26:48.749Z,8.25
2022-10-23T04:32:14.239Z,7.60
2022-10-23T04:37:41.967Z,7.57
2022-10-23T04:43:06.804Z,6.32
2022-10-23T04:48:37.151Z,5.50
2022-10-23T04:54:20.075Z,5.32
2022-10-23T05:00:19.567Z,5.50
2022-10-23T05:05:55.773Z,5.63
2022-10-23T05:11:39.325Z,4.82
2022-10-23T05:17:10.634Z,4.97
2022-10-23T05:22:40.340Z,6.03
2022-10-23T05:28:08.902Z,6.32
2022-10-23T05:33:34.007Z,6.88
2022-10-23T05:39:00.228Z,6.18
2022-10-23T05:44:25.981Z,5.10
2022-10-23T05:50:06.880Z,4.35
2022-10-23T05:56:09.756Z,3.60
2022-10-23T06:01:42.324Z,2.47
2022-10-23T06:07:07.452Z,2.53
2022-10-23T06:12:33.924Z,2.30
2022-10-23T06:18:01.970Z,3.10
2022-10-23T06:23:28.909Z,1.77
2022-10-23T06:29:17.040Z,1.98
2022-10-23T06:34:41.089Z,3.10
2022-10-23T06:40:07.945Z,2.35
2022-10-23T06:46:01.899Z,2.97
2022-10-23T06:51:58.193Z,2.75
2022-10-23T06:57:22.035Z,2.70
2022-10-23T07:02:48.001Z,3.00
2022-10-23T07:08:14.255Z,3.40
2022-10-23T07:13:41.091Z,4.10
2022-10-23T07:19:15.884Z,4.10
2022-10-23T07:25:09.490Z,4.07
2022-10-23T07:30:36.034Z,5.03
2022-10-23T07:36:02.597Z,4.53
2022-10-23T07:41:27.414Z,3.95
2022-10-23T07:46:51.973Z,3.92
2022-10-23T07:52:18.361Z,3.40
2022-10-23T07:58:06.390Z,3.80
2022-10-23T08:03:38.099Z,3.28
2022-10-23T08:09:06.605Z,3.40
2022-10-23T08:14:35.253Z,3.13
2022-10-23T08:19:59.795Z,2.40
2022-10-23T08:30:57.696Z,2.00
2022-10-23T08:36:25.102Z,2.20
2022-10-23T08:41:52.625Z,1.67
2022-10-23T08:47:23.997Z,1.92
2022-10-23T08:53:06.168Z,1.50
2022-10-23T08:58:38.669Z,2.10
2022-10-23T09:04:04.940Z,1.77
2022-10-23T09:09:47.859Z,1.60
2022-10-23T09:15:24.155Z,1.73
2022-10-23T09:20:50.278Z,1.70
2022-10-23T09:26:17.504Z,2.58
2022-10-23T09:31:51.459Z,3.03
2022-10-23T09:37:23.237Z,4.15
2022-10-23T09:42:59.254Z,3.67
2022-10-23T09:48:25.095Z,3.75
2022-10-23T09:53:53.483Z,3.28
2022-10-23T09:59:25.016Z,3.20
2022-10-23T10:04:54.664Z,2.78
2022-10-23T10:10:19.627Z,2.97
2022-10-23T10:15:51.500Z,2.75
2022-10-23T10:21:22.317Z,2.60
2022-10-23T10:26:58.975Z,2.03
2022-10-23T10:32:36.852Z,2.40
2022-10-23T10:38:21.307Z,3.08
2022-10-23T10:43:53.168Z,4.55
2022-10-23T10:49:24.211Z,2.95
2022-10-23T10:55:13.952Z,2.53
2022-10-23T11:00:38.576Z,2.75
2022-10-23T11:06:05.806Z,2.70
2022-10-23T11:11:37.265Z,3.35
2022-10-23T11:17:09.300Z,3.40
2022-10-23T11:22:38.625Z,3.22
2022-10-23T11:28:19.889Z,2.90
2022-10-23T11:34:07.985Z,3.20
2022-10-23T11:39:37.142Z,3.15
2022-10-23T11:45:32.239Z,3.60
2022-10-23T11:50:59.045Z,3.25
2022-10-23T11:56:28.069Z,3.15
2022-10-23T12:01:58.129Z,3.45
2022-10-23T12:07:25.893Z,3.33
2022-10-23T12:12:57.694Z,3.83
2022-10-23T12:18:24.188Z,3.80
2022-10-23T12:24:09.173Z,4.05
2022-10-23T12:29:44.769Z,4.43
2022-10-23T12:35:25.732Z,3.95
2022-10-23T12:40:53.726Z,4.78
2022-10-23T12:46:32.623Z,5.05
2022-10-23T12:52:01.052Z,4.53
2022-10-23T12:57:30.206Z,5.75
2022-10-23T13:03:03.409Z,6.28
2022-10-23T13:08:35.278Z,5.95
2022-10-23T13:14:33.160Z,6.22
2022-10-23T13:19:57.331Z,6.60
2022-10-23T13:25:25.066Z,6.88
2022-10-23T13:31:03.026Z,6.55
2022-10-23T13:36:31.266Z,5.43
2022-10-23T13:42:03.057Z,5.10
2022-10-23T13:47:28.545Z,4.70
2022-10-23T13:52:53.537Z,4.65
2022-10-23T13:58:20.051Z,4.88
2022-10-23T14:03:44.960Z,3.90
2022-10-23T14:09:12.957Z,4.18
2022-10-23T14:14:39.179Z,4.65
2022-10-23T14:20:06.052Z,4.72
2022-10-23T14:25:30.139Z,5.63
2022-10-23T14:30:55.810Z,5.75
2022-10-23T14:36:20.823Z,5.20
2022-10-23T14:41:45.485Z,5.10
2022-10-23T14:47:11.563Z,5.60
2022-10-23T14:52:36.711Z,4.90
2022-10-23T14:58:01.506Z,4.75
2022-10-23T15:03:27.470Z,4.88
2022-10-23T15:08:52.245Z,4.65
2022-10-23T15:14:17.526Z,5.00
2022-10-23T15:19:44.515Z,4.90
2022-10-23T15:25:14.262Z,4.80
2022-10-23T15:30:43.486Z,5.60
2022-10-23T15:36:09.761Z,5.60
2022-10-23T15:41:37.985Z,5.13
2022-10-23T15:47:02.764Z,4.20
2022-10-23T15:52:29.553Z,5.55
2022-10-23T15:57:59.107Z,4.80
2022-10-23T16:03:23.597Z,4.70
2022-10-23T16:08:49.741Z,4.00
2022-10-23T16:14:16.506Z,4.88
2022-10-23T16:19:41.993Z,4.10
2022-10-23T16:25:09.179Z,4.30
2022-10-23T16:30:34.434Z,3.63
2022-10-23T16:36:04.120Z,6.72
2022-10-23T16:41:30.818Z,6.25
2022-10-23T16:47:00.150Z,5.72
2022-10-23T16:52:25.406Z,5.75
2022-10-23T16:57:51.543Z,7.45
2022-10-23T17:03:16.407Z,6.93
2022-10-23T17:08:41.712Z,5.43
2022-10-23T17:14:09.696Z,10.85
2022-10-23T17:19:49.790Z,9.65
2022-10-23T17:25:15.416Z,9.35
2022-10-23T17:30:41.148Z,7.68
2022-10-23T17:36:06.076Z,6.80
2022-10-23T17:41:30.016Z,7.30
2022-10-23T17:46:56.876Z,11.05
2022-10-23T17:52:20.872Z,11.40
2022-10-23T17:57:45.530Z,12.50
2022-10-23T18:03:15.463Z,15.20
2022-10-23T18:08:44.866Z,13.35
2022-10-23T18:14:09.469Z,11.13
2022-10-23T18:19:36.505Z,12.65
2022-10-23T18:25:01.045Z,11.93
2022-10-23T18:30:25.107Z,12.43
2022-10-23T18:35:51.525Z,11.23
2022-10-23T18:41:18.053Z,11.43
2022-10-23T18:46:42.049Z,9.63
2022-10-23T18:52:07.532Z,10.45
2022-10-23T18:57:32.479Z,10.07
2022-10-23T19:02:56.416Z,10.20
2022-10-23T19:08:21.939Z,11.40
2022-10-23T19:13:47.123Z,11.07
2022-10-23T19:19:16.375Z,12.07
2022-10-23T19:24:46.658Z,12.13
2022-10-23T19:30:13.723Z,11.95
2022-10-23T19:35:38.139Z,12.15
2022-10-23T19:41:04.839Z,13.45
2022-10-23T19:46:31.921Z,16.17
2022-10-23T19:51:57.091Z,16.42
2022-10-23T19:57:27.255Z,14.85
2022-10-23T20:02:55.168Z,15.20
2022-10-23T20:08:24.637Z,15.43
2022-10-23T20:13:51.449Z,14.48
2022-10-23T20:24:47.365Z,13.98
2022-10-23T20:30:13.500Z,13.32
2022-10-23T20:35:41.742Z,13.95
2022-10-23T20:41:07.503Z,12.38
2022-10-23T20:46:35.136Z,12.32
2022-10-23T20:51:59.933Z,11.85
2022-10-23T20:57:24.283Z,12.00
2022-10-23T21:02:52.533Z,10.70
2022-10-23T21:08:17.449Z,10.00
2022-10-23T21:13:43.069Z,10.05
2022-10-23T21:19:11.770Z,10.50
2022-10-23T21:24:35.669Z,8.65
2022-10-23T21:30:00.114Z,8.10
2022-10-23T21:35:29.284Z,7.50
2022-10-23T21:40:53.966Z,8.80
2022-10-23T21:46:21.786Z,8.35
2022-10-23T21:51:47.963Z,9.00
2022-10-23T21:57:14.371Z,9.50
2022-10-23T22:02:38.884Z,8.82
2022-10-23T22:08:05.247Z,8.48
2022-10-23T22:13:29.849Z,9.13
2022-10-23T22:18:54.137Z,8.00
2022-10-23T22:24:20.420Z,8.35
2022-10-23T22:29:45.964Z,7.80
2022-10-23T22:35:10.589Z,7.63
2022-10-23T22:40:41.884Z,8.23
2022-10-23T22:46:10.142Z,7.93
2022-10-23T22:51:34.433Z,7.05
2022-10-23T22:57:00.036Z,8.35
2022-10-23T23:02:24.207Z,7.10
2022-10-23T23:07:49.200Z,7.53
2022-10-23T23:13:14.878Z,7.45
2022-10-23T23:18:39.260Z,7.93
2022-10-23T23:24:03.195Z,6.95
2022-10-23T23:29:29.647Z,6.80
2022-10-23T23:35:00.214Z,6.30
2022-10-23T23:40:24.338Z,6.03
2022-10-23T23:45:49.956Z,6.07
2022-10-23T23:51:14.494Z,6.05
2022-10-23T23:56:38.465Z,5.43
